createdAt,value
2018-04-11T00:00:55.779Z,37.30
2018-04-11T00:01:55.793Z,40.80
2018-04-11T00:02:55.818Z,39.60
2018-04-11T00:03:55.837Z,38.10
2018-04-11T00:04:55.854Z,40.00
2018-04-11T00:05:55.874Z,38.40
2018-04-11T00:06:55.888Z,38.50
2018-04-11T00:07:55.907Z,34.50
2018-04-11T00:08:55.927Z,41.70
2018-04-11T00:09:55.946Z,37.60
2018-04-11T00:10:55.965Z,41.70
2018-04-11T00:11:55.993Z,41.00
2018-04-11T00:12:55.999Z,35.60
2018-04-11T00:13:56.022Z,38.30
2018-04-11T00:14:56.037Z,42.40
2018-04-11T00:15:56.067Z,40.70
2018-04-11T00:16:56.076Z,39.10
2018-04-11T00:17:56.114Z,39.60
2018-04-11T00:18:56.113Z,43.10
2018-04-11T00:19:56.133Z,37.70
2018-04-11T00:20:56.153Z,36.20
2018-04-11T00:21:56.168Z,40.50
2018-04-11T00:22:56.190Z,41.10
2018-04-11T00:23:56.206Z,44.00
2018-04-11T00:24:56.226Z,38.20
2018-04-11T00:25:56.249Z,38.80
2018-04-11T00:26:56.267Z,39.20
2018-04-11T00:27:56.279Z,38.70
2018-04-11T00:28:56.298Z,39.00
2018-04-11T00:29:56.313Z,40.60
2018-04-11T00:30:56.336Z,38.20
2018-04-11T00:31:56.350Z,38.80
2018-04-11T00:32:56.371Z,38.90
2018-04-11T00:33:56.388Z,36.60
2018-04-11T00:34:56.406Z,41.70
2018-04-11T00:35:56.426Z,42.70
2018-04-11T00:36:56.438Z,43.40
2018-04-11T00:37:56.465Z,41.50
2018-04-11T00:38:56.477Z,40.70
2018-04-11T00:39:56.498Z,43.60
2018-04-11T00:40:56.525Z,41.90
2018-04-11T00:41:56.530Z,40.60
2018-04-11T00:42:56.551Z,42.30
2018-04-11T00:43:56.566Z,37.90
2018-04-11T00:44:56.602Z,41.90
2018-04-11T00:45:56.602Z,40.80
2018-04-11T00:46:56.623Z,40.30
2018-04-11T00:47:56.647Z,41.30
2018-04-11T00:48:56.661Z,40.40
2018-04-11T00:49:56.676Z,40.90
2018-04-11T00:50:56.695Z,40.60
2018-04-11T00:51:56.718Z,38.20
2018-04-11T00:52:56.730Z,40.10
2018-04-11T00:53:56.757Z,35.60
2018-04-11T00:54:56.766Z,36.30
2018-04-11T00:55:56.918Z,35.10
2018-04-11T00:56:56.809Z,35.60
2018-04-11T00:57:56.847Z,35.80
2018-04-11T00:58:56.839Z,35.60
2018-04-11T00:59:56.857Z,37.30
2018-04-11T01:00:56.872Z,32.00
2018-04-11T01:01:56.897Z,36.70
2018-04-11T01:02:56.927Z,41.40
2018-04-11T01:03:56.928Z,38.80
2018-04-11T01:04:56.946Z,39.10
2018-04-11T01:05:56.966Z,39.70
2018-04-11T01:06:56.981Z,36.00
2018-04-11T01:07:56.999Z,40.00
2018-04-11T01:08:57.019Z,36.30
2018-04-11T01:09:57.053Z,37.30
2018-04-11T01:10:57.057Z,37.50
2018-04-11T01:11:57.071Z,37.10
2018-04-11T01:12:57.094Z,36.40
2018-04-11T01:13:57.106Z,38.20
2018-04-11T01:14:57.125Z,39.30
2018-04-11T01:15:57.145Z,39.30
2018-04-11T01:16:57.163Z,38.60
2018-04-11T01:17:57.179Z,38.80
2018-04-11T01:18:57.195Z,36.40
2018-04-11T01:19:57.215Z,37.70
2018-04-11T01:20:57.239Z,36.30
2018-04-11T01:21:57.252Z,36.70
2018-04-11T01:22:57.270Z,36.40
2018-04-11T01:23:57.288Z,38.80
2018-04-11T01:24:57.306Z,36.70
2018-04-11T01:25:57.322Z,43.70
2018-04-11T01:26:57.345Z,37.20
2018-04-11T01:27:57.359Z,38.40
2018-04-11T01:28:57.377Z,36.80
2018-04-11T01:29:57.399Z,39.20
2018-04-11T01:30:57.416Z,35.80
2018-04-11T01:31:57.433Z,40.10
2018-04-11T01:32:57.451Z,36.90
2018-04-11T01:33:57.469Z,40.40
2018-04-11T01:34:57.490Z,39.90
2018-04-11T01:35:57.506Z,41.00
2018-04-11T01:36:57.522Z,40.00
2018-04-11T01:37:57.539Z,41.60
2018-04-11T01:38:57.558Z,37.40
2018-04-11T01:39:57.584Z,39.90
2018-04-11T01:40:57.594Z,38.80
2018-04-11T01:41:57.612Z,37.00
2018-04-11T01:42:57.632Z,40.80
2018-04-11T01:43:57.649Z,37.00
2018-04-11T01:44:57.668Z,43.40
2018-04-11T01:45:57.694Z,42.30
2018-04-11T01:46:57.707Z,42.80
2018-04-11T01:47:57.769Z,40.50
2018-04-11T01:48:57.739Z,36.60
2018-04-11T01:49:57.757Z,33.80
2018-04-11T01:50:57.773Z,34.70
2018-04-11T01:51:57.795Z,42.30
2018-04-11T01:52:57.814Z,35.20
2018-04-11T01:53:57.829Z,38.40
2018-04-11T01:54:57.848Z,33.10
2018-04-11T01:55:57.868Z,42.70
2018-04-11T01:56:57.884Z,38.60
2018-04-11T01:57:57.905Z,37.60
2018-04-11T01:58:57.919Z,39.40
2018-04-11T01:59:57.939Z,39.30
2018-04-11T02:00:57.956Z,39.10
2018-04-11T02:01:57.979Z,37.70
2018-04-11T02:02:57.996Z,38.50
2018-04-11T02:03:58.013Z,39.50
2018-04-11T02:04:58.032Z,38.10
2018-04-11T02:05:58.049Z,36.90
2018-04-11T02:06:58.070Z,39.80
2018-04-11T02:07:58.081Z,36.10
2018-04-11T02:08:58.101Z,35.90
2018-04-11T02:09:58.119Z,40.10
2018-04-11T02:10:58.141Z,37.90
2018-04-11T02:11:58.161Z,40.10
2018-04-11T02:12:58.172Z,34.00
2018-04-11T02:13:58.190Z,33.90
2018-04-11T02:14:58.206Z,38.80
2018-04-11T02:15:58.226Z,33.50
2018-04-11T02:16:58.245Z,33.80
2018-04-11T02:17:58.261Z,36.50
2018-04-11T02:18:58.277Z,37.40
2018-04-11T02:19:58.300Z,37.90
2018-04-11T02:20:58.317Z,36.60
2018-04-11T02:21:58.336Z,33.70
2018-04-11T02:22:58.353Z,35.80
2018-04-11T02:23:58.369Z,35.70
2018-04-11T02:24:58.387Z,40.90
2018-04-11T02:25:58.407Z,38.90
2018-04-11T02:26:58.423Z,35.20
2018-04-11T02:27:58.439Z,39.90
2018-04-11T02:28:58.458Z,38.70
2018-04-11T02:29:58.477Z,36.00
2018-04-11T02:30:58.494Z,33.70
2018-04-11T02:31:58.528Z,34.00
2018-04-11T02:32:58.534Z,36.50
2018-04-11T02:33:58.550Z,43.00
2018-04-11T02:34:58.567Z,36.50
2018-04-11T02:35:58.583Z,39.50
2018-04-11T02:36:58.606Z,44.60
2018-04-11T02:37:58.618Z,41.70
2018-04-11T02:38:58.637Z,39.70
2018-04-11T02:39:58.653Z,39.80
2018-04-11T02:40:58.675Z,42.40
2018-04-11T02:41:58.692Z,40.80
2018-04-11T02:42:58.707Z,33.40
2018-04-11T02:43:58.725Z,37.50
2018-04-11T02:44:58.743Z,43.70
2018-04-11T02:45:58.759Z,41.30
2018-04-11T02:46:58.778Z,37.20
2018-04-11T02:47:58.794Z,37.50
2018-04-11T02:48:58.813Z,37.40
2018-04-11T02:49:58.831Z,42.00
2018-04-11T02:50:58.850Z,39.80
2018-04-11T02:51:58.866Z,38.20
2018-04-11T02:52:58.884Z,38.00
2018-04-11T02:53:58.904Z,41.70
2018-04-11T02:54:58.919Z,32.90
2018-04-11T02:55:58.936Z,39.90
2018-04-11T02:56:58.956Z,40.10
2018-04-11T02:57:58.970Z,35.70
2018-04-11T02:58:58.991Z,38.90
2018-04-11T02:59:59.011Z,39.60
2018-04-11T03:00:59.024Z,36.80
2018-04-11T03:01:59.040Z,42.20
2018-04-11T03:02:59.060Z,36.50
2018-04-11T03:03:59.078Z,39.80
2018-04-11T03:04:59.093Z,37.40
2018-04-11T03:05:59.112Z,37.50
2018-04-11T03:06:59.128Z,35.60
2018-04-11T03:07:59.155Z,37.30
2018-04-11T03:08:59.163Z,42.60
2018-04-11T03:09:59.183Z,39.30
2018-04-11T03:10:59.201Z,40.40
2018-04-11T03:11:59.214Z,43.10
2018-04-11T03:12:59.242Z,37.30
2018-04-11T03:13:59.252Z,40.00
2018-04-11T03:14:59.269Z,35.80
2018-04-11T03:15:59.287Z,40.50
2018-04-11T03:16:59.304Z,44.20
2018-04-11T03:17:59.330Z,38.30
2018-04-11T03:18:59.343Z,41.10
2018-04-11T03:19:59.359Z,37.90
2018-04-11T03:20:59.377Z,39.50
2018-04-11T03:21:59.405Z,40.80
2018-04-11T03:22:59.412Z,40.00
2018-04-11T03:23:59.423Z,36.30
2018-04-11T03:24:59.449Z,35.30
2018-04-11T03:25:59.460Z,38.20
2018-04-11T03:26:59.482Z,37.20
2018-04-11T03:27:59.498Z,36.60
2018-04-11T03:28:59.515Z,35.90
2018-04-11T03:29:59.527Z,39.90
2018-04-11T03:30:59.546Z,38.40
2018-04-11T03:31:59.563Z,37.00
2018-04-11T03:32:59.583Z,37.40
2018-04-11T03:33:59.603Z,37.40
2018-04-11T03:34:59.616Z,34.30
2018-04-11T03:35:59.633Z,34.10
2018-04-11T03:36:59.655Z,37.30
2018-04-11T03:37:59.666Z,37.00
2018-04-11T03:38:59.686Z,35.40
2018-04-11T03:39:59.701Z,39.70
2018-04-11T03:40:59.724Z,42.50
2018-04-11T03:41:59.739Z,41.40
2018-04-11T03:42:59.753Z,39.80
2018-04-11T03:43:59.772Z,40.10
2018-04-11T03:44:59.789Z,42.20
2018-04-11T03:45:59.807Z,35.40
2018-04-11T03:46:59.827Z,38.20
2018-04-11T03:47:59.841Z,39.50
2018-04-11T03:48:59.858Z,40.90
2018-04-11T03:49:59.876Z,40.90
2018-04-11T03:50:59.894Z,37.80
2018-04-11T03:51:59.913Z,38.60
2018-04-11T03:52:59.944Z,38.10
2018-04-11T03:53:59.947Z,39.00
2018-04-11T03:54:59.965Z,36.70
2018-04-11T03:55:59.977Z,39.20
2018-04-11T03:56:59.998Z,37.20
2018-04-11T03:58:00.011Z,39.70
2018-04-11T03:59:00.031Z,37.50
2018-04-11T04:00:00.063Z,39.10
2018-04-11T04:01:00.069Z,38.50
2018-04-11T04:02:00.092Z,41.90
2018-04-11T04:03:00.100Z,42.60
2018-04-11T04:04:00.116Z,39.20
2018-04-11T04:05:00.133Z,33.30
2018-04-11T04:06:00.148Z,40.20
2018-04-11T04:07:00.175Z,43.80
2018-04-11T04:08:00.187Z,40.10
2018-04-11T04:09:00.202Z,37.10
2018-04-11T04:10:00.218Z,39.10
2018-04-11T04:11:00.236Z,34.50
2018-04-11T04:12:00.256Z,41.30
2018-04-11T04:13:00.272Z,39.20
2018-04-11T04:14:00.288Z,37.00
2018-04-11T04:15:00.304Z,35.60
2018-04-11T04:16:00.322Z,34.60
2018-04-11T04:17:00.338Z,38.00
2018-04-11T04:18:00.362Z,35.00
2018-04-11T04:19:00.374Z,34.90
2018-04-11T04:20:00.389Z,37.30
2018-04-11T04:21:00.409Z,39.10
2018-04-11T04:22:00.424Z,40.20
2018-04-11T04:23:00.443Z,35.30
2018-04-11T04:24:00.456Z,40.70
2018-04-11T04:25:00.474Z,39.60
2018-04-11T04:26:00.493Z,37.20
2018-04-11T04:27:00.538Z,37.30
2018-04-11T04:28:00.525Z,38.90
2018-04-11T04:29:00.548Z,36.30
2018-04-11T04:30:00.562Z,38.90
2018-04-11T04:31:00.578Z,38.90
2018-04-11T04:32:00.598Z,41.80
2018-04-11T04:33:00.610Z,40.70
2018-04-11T04:34:00.629Z,39.40
2018-04-11T04:35:00.644Z,37.20
2018-04-11T04:36:00.661Z,40.40
2018-04-11T04:37:00.681Z,36.40
2018-04-11T04:38:00.693Z,42.70
2018-04-11T04:39:00.712Z,41.40
2018-04-11T04:40:00.731Z,40.80
2018-04-11T04:41:00.749Z,42.10
2018-04-11T04:42:00.765Z,40.20
2018-04-11T04:43:00.782Z,36.80
2018-04-11T04:44:00.799Z,37.10
2018-04-11T04:45:00.837Z,37.40
2018-04-11T04:46:00.843Z,38.20
2018-04-11T04:47:00.863Z,41.30
2018-04-11T04:48:00.865Z,38.40
2018-04-11T04:49:00.893Z,39.50
2018-04-11T04:50:00.902Z,36.60
2018-04-11T04:51:00.920Z,41.10
2018-04-11T04:52:00.940Z,37.00
2018-04-11T04:53:00.964Z,38.90
2018-04-11T04:54:00.967Z,41.60
2018-04-11T04:55:00.985Z,40.70
2018-04-11T04:56:01.016Z,35.40
2018-04-11T04:57:01.078Z,36.20
2018-04-11T04:58:01.036Z,39.50
2018-04-11T04:59:01.058Z,39.50
2018-04-11T05:00:01.070Z,34.40
2018-04-11T05:01:01.091Z,38.50
2018-04-11T05:02:01.109Z,39.50
2018-04-11T05:03:01.119Z,38.80
2018-04-11T05:04:01.157Z,36.70
2018-04-11T05:05:01.155Z,42.70
2018-04-11T05:06:01.169Z,38.80
2018-04-11T05:07:01.188Z,37.50
2018-04-11T05:08:01.204Z,38.40
2018-04-11T05:09:01.225Z,38.20
2018-04-11T05:10:01.238Z,35.40
2018-04-11T05:11:01.256Z,43.70
2018-04-11T05:12:01.274Z,38.10
2018-04-11T05:13:01.289Z,34.20
2018-04-11T05:14:01.306Z,36.60
2018-04-11T05:15:01.324Z,37.10
2018-04-11T05:16:01.340Z,35.90
2018-04-11T05:17:01.357Z,35.40
2018-04-11T05:18:01.372Z,33.20
2018-04-11T05:19:01.394Z,38.70
2018-04-11T05:20:01.408Z,36.70
2018-04-11T05:21:01.423Z,41.30
2018-04-11T05:22:01.440Z,37.00
2018-04-11T05:23:01.456Z,40.80
2018-04-11T05:24:01.472Z,38.50
2018-04-11T05:25:01.493Z,37.30
2018-04-11T05:26:01.537Z,34.10
2018-04-11T05:27:01.525Z,33.90
2018-04-11T05:28:01.543Z,38.30
2018-04-11T05:29:01.562Z,33.10
2018-04-11T05:30:01.579Z,43.10
2018-04-11T05:31:01.595Z,34.70
2018-04-11T05:32:01.614Z,39.20
2018-04-11T05:33:01.637Z,36.70
2018-04-11T05:34:01.649Z,35.00
2018-04-11T05:35:01.664Z,36.90
2018-04-11T05:36:01.680Z,36.70
2018-04-11T05:37:01.698Z,38.10
2018-04-11T05:38:01.715Z,33.00
2018-04-11T05:39:01.731Z,34.80
2018-04-11T05:40:01.762Z,37.00
2018-04-11T05:41:01.767Z,33.00
2018-04-11T05:42:01.781Z,36.80
2018-04-11T05:43:01.800Z,33.40
2018-04-11T05:44:01.819Z,35.10
2018-04-11T05:45:01.835Z,32.50
2018-04-11T05:46:01.854Z,33.40
2018-04-11T05:47:01.875Z,33.20
2018-04-11T05:48:01.945Z,33.90
2018-04-11T05:49:01.902Z,36.20
2018-04-11T05:50:01.926Z,37.10
2018-04-11T05:51:01.940Z,29.60
2018-04-11T05:52:01.966Z,32.90
2018-04-11T05:53:02.008Z,36.40
2018-04-11T05:54:01.990Z,36.90
2018-04-11T05:55:02.018Z,34.80
2018-04-11T05:56:02.030Z,33.70
2018-04-11T05:57:02.043Z,30.60
2018-04-11T05:58:02.063Z,30.20
2018-04-11T05:59:02.095Z,35.90
2018-04-11T06:00:02.100Z,30.20
2018-04-11T06:01:02.113Z,34.50
2018-04-11T06:02:02.130Z,35.00
2018-04-11T06:03:02.148Z,34.50
2018-04-11T06:04:02.165Z,33.20
2018-04-11T06:05:02.187Z,33.30
2018-04-11T06:06:02.210Z,32.30
2018-04-11T06:07:02.223Z,34.40
2018-04-11T06:08:02.240Z,27.50
2018-04-11T06:09:02.259Z,29.80
2018-04-11T06:10:02.277Z,33.50
2018-04-11T06:11:02.295Z,29.10
2018-04-11T06:12:02.314Z,32.10
2018-04-11T06:13:02.335Z,26.30
2018-04-11T06:14:02.350Z,30.30
2018-04-11T06:15:02.373Z,33.50
2018-04-11T06:16:02.389Z,27.40
2018-04-11T06:17:02.463Z,25.10
2018-04-11T06:18:02.427Z,28.40
2018-04-11T06:19:02.445Z,30.30
2018-04-11T06:20:02.478Z,29.80
2018-04-11T06:21:02.484Z,24.60
2018-04-11T06:22:02.507Z,32.10
2018-04-11T06:23:02.535Z,28.90
2018-04-11T06:24:02.550Z,28.60
2018-04-11T06:25:02.564Z,29.70
2018-04-11T06:26:02.585Z,26.10
2018-04-11T06:27:02.597Z,26.80
2018-04-11T06:28:02.672Z,24.90
2018-04-11T06:29:02.637Z,25.90
2018-04-11T06:30:02.654Z,27.00
2018-04-11T06:31:02.673Z,33.90
2018-04-11T06:32:02.692Z,31.60
2018-04-11T06:33:02.708Z,31.50
2018-04-11T06:34:02.727Z,27.20
2018-04-11T06:35:02.757Z,25.90
2018-04-11T06:36:02.767Z,32.20
2018-04-11T06:37:02.790Z,28.40
2018-04-11T06:38:02.806Z,25.20
2018-04-11T06:39:02.824Z,28.00
2018-04-11T06:40:02.841Z,27.90
2018-04-11T06:41:02.859Z,28.30
2018-04-11T06:42:02.926Z,32.90
2018-04-11T06:43:02.895Z,25.70
2018-04-11T06:44:02.917Z,25.70
2018-04-11T06:45:02.934Z,29.30
2018-04-11T06:46:02.953Z,27.90
2018-04-11T06:47:02.971Z,30.90
2018-04-11T06:48:03.001Z,33.20
2018-04-11T06:49:03.027Z,29.30
2018-04-11T06:50:03.030Z,32.20
2018-04-11T06:51:03.047Z,28.90
2018-04-11T06:52:03.064Z,28.20
2018-04-11T06:53:03.081Z,30.20
2018-04-11T06:54:03.097Z,29.70
2018-04-11T06:55:03.118Z,28.20
2018-04-11T06:56:03.137Z,26.60
2018-04-11T06:57:03.155Z,28.00
2018-04-11T06:58:03.172Z,30.80
2018-04-11T06:59:03.195Z,28.50
2018-04-11T07:00:03.211Z,32.70
2018-04-11T07:01:03.263Z,31.30
2018-04-11T07:02:03.248Z,25.20
2018-04-11T07:03:03.264Z,30.80
2018-04-11T07:04:03.287Z,34.70
2018-04-11T07:05:03.306Z,26.30
2018-04-11T07:06:03.320Z,30.40
2018-04-11T07:07:03.340Z,29.50
2018-04-11T07:08:03.361Z,32.90
2018-04-11T07:09:03.383Z,26.50
2018-04-11T07:10:03.403Z,27.90
2018-04-11T07:11:03.417Z,29.20
2018-04-11T07:12:03.439Z,28.80
2018-04-11T07:13:03.458Z,27.90
2018-04-11T07:14:03.523Z,29.50
2018-04-11T07:15:03.497Z,26.80
2018-04-11T07:16:03.522Z,27.40
2018-04-11T07:17:03.538Z,27.50
2018-04-11T07:18:03.558Z,25.70
2018-04-11T07:19:03.589Z,30.00
2018-04-11T07:20:03.597Z,26.70
2018-04-11T07:21:03.623Z,27.00
2018-04-11T07:22:03.641Z,25.00
2018-04-11T07:23:03.667Z,25.30
2018-04-11T07:24:03.684Z,26.80
2018-04-11T07:25:03.706Z,27.30
2018-04-11T07:26:03.733Z,27.40
2018-04-11T07:27:03.752Z,30.90
2018-04-11T07:28:03.776Z,25.40
2018-04-11T07:29:03.798Z,27.30
2018-04-11T07:30:03.821Z,25.10
2018-04-11T07:31:03.844Z,26.00
2018-04-11T07:32:03.867Z,28.30
2018-04-11T07:33:03.891Z,24.70
2018-04-11T07:34:03.914Z,25.90
2018-04-11T07:35:03.942Z,26.30
2018-04-11T07:36:03.959Z,25.80
2018-04-11T07:37:03.986Z,27.10
2018-04-11T07:38:04.007Z,30.60
2018-04-11T07:39:04.030Z,23.70
2018-04-11T07:40:04.083Z,26.90
2018-04-11T07:41:04.083Z,25.40
2018-04-11T07:42:04.105Z,25.80
2018-04-11T07:43:04.135Z,26.70
2018-04-11T07:44:04.154Z,25.70
2018-04-11T07:45:04.179Z,27.20
2018-04-11T07:46:04.244Z,29.70
2018-04-11T07:47:04.225Z,23.20
2018-04-11T07:48:04.249Z,27.00
2018-04-11T07:49:04.272Z,27.40
2018-04-11T07:50:04.296Z,26.20
2018-04-11T07:51:04.327Z,27.80
2018-04-11T07:52:04.345Z,24.40
2018-04-11T07:53:04.370Z,24.90
2018-04-11T07:54:04.393Z,25.00
2018-04-11T07:55:04.421Z,26.70
2018-04-11T07:56:04.443Z,27.30
2018-04-11T07:57:04.466Z,22.80
2018-04-11T07:58:04.488Z,23.70
2018-04-11T07:59:04.512Z,24.80
2018-04-11T08:00:04.539Z,21.90
2018-04-11T08:01:04.563Z,22.70
2018-04-11T08:02:04.586Z,24.70
2018-04-11T08:03:04.660Z,26.90
2018-04-11T08:04:04.637Z,24.90
2018-04-11T08:05:04.661Z,28.10
2018-04-11T08:06:04.687Z,21.90
2018-04-11T08:07:04.712Z,23.70
2018-04-11T08:08:04.733Z,21.50
2018-04-11T08:09:04.763Z,22.90
2018-04-11T08:10:04.817Z,23.00
2018-04-11T08:11:04.808Z,23.20
2018-04-11T08:12:04.831Z,21.40
2018-04-11T08:13:04.857Z,26.10
2018-04-11T08:14:04.885Z,23.60
2018-04-11T08:15:04.906Z,23.40
2018-04-11T08:16:04.930Z,24.70
2018-04-11T08:17:04.959Z,24.60
2018-04-11T08:18:04.979Z,21.50
2018-04-11T08:19:05.006Z,23.70
2018-04-11T08:20:05.029Z,23.80
2018-04-11T08:21:05.054Z,25.00
2018-04-11T08:22:05.080Z,23.20
2018-04-11T08:23:05.103Z,24.40
2018-04-11T08:24:05.129Z,25.40
2018-04-11T08:25:05.154Z,21.00
2018-04-11T08:26:05.178Z,25.10
2018-04-11T08:27:05.201Z,25.60
2018-04-11T08:28:05.224Z,30.50
2018-04-11T08:29:05.250Z,22.50
2018-04-11T08:30:05.274Z,23.60
2018-04-11T08:31:05.296Z,24.90
2018-04-11T08:32:05.323Z,23.50
2018-04-11T08:33:05.346Z,23.80
2018-04-11T08:34:05.373Z,24.10
2018-04-11T08:35:05.391Z,23.40
2018-04-11T08:36:05.415Z,27.50
2018-04-11T08:37:05.441Z,23.60
2018-04-11T08:38:05.463Z,25.40
2018-04-11T08:39:05.485Z,27.40
2018-04-11T08:40:05.504Z,30.70
2018-04-11T08:41:05.527Z,25.30
2018-04-11T08:42:05.549Z,27.40
2018-04-11T08:43:05.573Z,27.40
2018-04-11T08:44:05.658Z,27.10
2018-04-11T08:45:05.613Z,24.60
2018-04-11T08:46:05.634Z,26.60
2018-04-11T08:47:05.655Z,25.80
2018-04-11T08:48:05.685Z,25.20
2018-04-11T08:49:05.698Z,24.50
2018-04-11T08:50:05.720Z,31.70
2018-04-11T08:51:05.740Z,26.20
2018-04-11T08:52:05.769Z,27.20
2018-04-11T08:53:05.784Z,26.50
2018-04-11T08:54:05.806Z,24.90
2018-04-11T08:55:05.827Z,26.40
2018-04-11T08:56:05.848Z,23.80
2018-04-11T08:57:05.883Z,30.10
2018-04-11T08:58:05.890Z,31.30
2018-04-11T08:59:05.913Z,25.10
2018-04-11T09:00:05.933Z,27.10
2018-04-11T09:01:05.951Z,26.80
2018-04-11T09:02:05.972Z,30.20
2018-04-11T09:03:05.997Z,31.50
2018-04-11T09:04:06.024Z,27.90
2018-04-11T09:05:06.040Z,27.80
2018-04-11T09:06:06.065Z,27.60
2018-04-11T09:07:06.079Z,30.50
2018-04-11T09:08:06.100Z,25.80
2018-04-11T09:09:06.122Z,26.30
2018-04-11T09:10:06.144Z,25.70
2018-04-11T09:11:06.161Z,28.90
2018-04-11T09:12:06.190Z,27.40
2018-04-11T09:13:06.200Z,32.10
2018-04-11T09:14:06.224Z,32.40
2018-04-11T09:15:06.248Z,27.90
2018-04-11T09:16:06.264Z,27.40
2018-04-11T09:17:06.285Z,25.80
2018-04-11T09:18:06.302Z,30.00
2018-04-11T09:19:06.328Z,31.20
2018-04-11T09:20:06.351Z,27.40
2018-04-11T09:21:06.368Z,29.10
2018-04-11T09:22:06.383Z,26.10
2018-04-11T09:23:06.407Z,29.00
2018-04-11T09:24:06.426Z,28.40
2018-04-11T09:25:06.446Z,28.60
2018-04-11T09:26:06.490Z,26.90
2018-04-11T09:27:06.496Z,24.50
2018-04-11T09:28:06.512Z,30.00
2018-04-11T09:29:06.528Z,26.70
2018-04-11T09:30:06.547Z,27.70
2018-04-11T09:31:06.567Z,26.60
2018-04-11T09:32:06.595Z,30.00
2018-04-11T09:33:06.660Z,27.70
2018-04-11T09:34:06.631Z,24.80
2018-04-11T09:35:06.655Z,27.30
2018-04-11T09:36:06.671Z,29.70
2018-04-11T09:37:06.695Z,24.60
2018-04-11T09:38:06.713Z,27.80
2018-04-11T09:39:06.737Z,30.40
2018-04-11T09:40:06.754Z,26.80
2018-04-11T09:41:06.775Z,25.40
2018-04-11T09:42:06.801Z,26.00
2018-04-11T09:43:06.820Z,29.50
2018-04-11T09:44:06.844Z,29.50
2018-04-11T09:45:06.870Z,28.00
2018-04-11T09:46:06.882Z,26.80
2018-04-11T09:47:06.903Z,23.80
2018-04-11T09:48:06.927Z,27.50
2018-04-11T09:49:06.946Z,26.00
2018-04-11T09:50:06.969Z,27.00
2018-04-11T09:51:06.994Z,26.80
2018-04-11T09:52:07.010Z,30.60
2018-04-11T09:53:07.034Z,27.80
2018-04-11T09:54:07.055Z,30.00
2018-04-11T09:55:07.075Z,32.60
2018-04-11T09:56:07.099Z,31.90
2018-04-11T09:57:07.122Z,29.80
2018-04-11T09:58:07.146Z,25.70
2018-04-11T09:59:07.162Z,26.80
2018-04-11T10:00:07.182Z,32.10
2018-04-11T10:01:07.203Z,26.30
2018-04-11T10:02:07.228Z,27.10
2018-04-11T10:03:07.253Z,32.30
2018-04-11T10:04:07.276Z,32.40
2018-04-11T10:05:07.295Z,26.10
2018-04-11T10:06:07.316Z,28.20
2018-04-11T10:07:07.333Z,32.30
2018-04-11T10:08:07.361Z,28.70
2018-04-11T10:09:07.378Z,29.00
2018-04-11T10:10:07.398Z,27.80
2018-04-11T10:11:07.421Z,28.80
2018-04-11T10:12:07.444Z,33.80
2018-04-11T10:13:07.459Z,29.40
2018-04-11T10:14:07.482Z,31.20
2018-04-11T10:15:07.503Z,32.90
2018-04-11T10:16:07.524Z,28.20
2018-04-11T10:17:07.545Z,28.60
2018-04-11T10:18:07.566Z,35.40
2018-04-11T10:19:07.649Z,30.00
2018-04-11T10:20:07.612Z,26.90
2018-04-11T10:21:07.631Z,29.20
2018-04-11T10:22:07.648Z,28.40
2018-04-11T10:23:07.674Z,32.40
2018-04-11T10:24:07.690Z,27.30
2018-04-11T10:25:07.713Z,32.80
2018-04-11T10:26:07.731Z,27.50
2018-04-11T10:27:07.753Z,29.10
2018-04-11T10:28:07.780Z,31.30
2018-04-11T10:29:07.795Z,28.10
2018-04-11T10:30:07.813Z,24.70
2018-04-11T10:31:07.838Z,27.50
2018-04-11T10:32:07.858Z,27.90
2018-04-11T10:33:07.883Z,26.90
2018-04-11T10:34:07.901Z,30.80
2018-04-11T10:35:07.925Z,30.70
2018-04-11T10:36:07.940Z,29.20
2018-04-11T10:37:07.965Z,28.50
2018-04-11T10:38:07.983Z,29.40
2018-04-11T10:39:08.007Z,28.60
2018-04-11T10:40:08.023Z,30.10
2018-04-11T10:41:08.047Z,28.60
2018-04-11T10:42:08.068Z,29.00
2018-04-11T10:43:08.084Z,32.70
2018-04-11T10:44:08.107Z,29.40
2018-04-11T10:45:08.131Z,37.10
2018-04-11T10:46:08.164Z,31.60
2018-04-11T10:47:08.168Z,29.20
2018-04-11T10:48:08.196Z,28.20
2018-04-11T10:49:08.214Z,31.80
2018-04-11T10:50:08.232Z,27.50
2018-04-11T10:51:08.265Z,31.90
2018-04-11T10:52:08.275Z,31.70
2018-04-11T10:53:08.294Z,28.90
2018-04-11T10:54:08.315Z,29.60
2018-04-11T10:55:08.335Z,32.90
2018-04-11T10:56:08.361Z,34.30
2018-04-11T10:57:08.375Z,31.10
2018-04-11T10:58:08.397Z,30.90
2018-04-11T10:59:08.417Z,28.80
2018-04-11T11:00:08.442Z,31.10
2018-04-11T11:01:08.456Z,36.60
2018-04-11T11:02:08.477Z,30.40
2018-04-11T11:03:08.500Z,27.20
2018-04-11T11:04:08.522Z,30.60
2018-04-11T11:05:08.540Z,36.90
2018-04-11T11:06:08.560Z,34.20
2018-04-11T11:07:08.590Z,31.60
2018-04-11T11:08:08.601Z,28.80
2018-04-11T11:09:08.624Z,33.90
2018-04-11T11:10:08.646Z,31.60
2018-04-11T11:11:08.664Z,34.20
2018-04-11T11:12:08.686Z,31.60
2018-04-11T11:13:08.707Z,32.80
2018-04-11T11:14:08.731Z,34.20
2018-04-11T11:15:08.746Z,32.10
2018-04-11T11:16:08.768Z,30.30
2018-04-11T11:17:08.793Z,30.40
2018-04-11T11:18:08.811Z,30.40
2018-04-11T11:19:08.832Z,32.40
2018-04-11T11:20:08.982Z,32.90
2018-04-11T11:21:08.872Z,32.90
2018-04-11T11:22:08.892Z,32.90
2018-04-11T11:23:08.912Z,33.30
2018-04-11T11:24:08.933Z,29.60
2018-04-11T11:25:08.952Z,36.50
2018-04-11T11:26:08.976Z,32.30
2018-04-11T11:27:08.996Z,34.30
2018-04-11T11:28:09.020Z,30.00
2018-04-11T11:29:09.037Z,34.80
2018-04-11T11:30:09.057Z,32.40
2018-04-11T11:31:09.088Z,33.10
2018-04-11T11:32:09.098Z,29.90
2018-04-11T11:33:09.124Z,34.60
2018-04-11T11:34:09.144Z,30.00
2018-04-11T11:35:09.162Z,28.40
2018-04-11T11:36:09.183Z,38.50
2018-04-11T11:37:09.201Z,34.40
2018-04-11T11:38:09.229Z,28.90
2018-04-11T11:39:09.243Z,35.70
2018-04-11T11:40:09.269Z,31.50
2018-04-11T11:41:09.285Z,31.20
2018-04-11T11:42:09.306Z,33.00
2018-04-11T11:43:09.324Z,33.00
2018-04-11T11:44:09.347Z,34.20
2018-04-11T11:45:09.384Z,35.90
2018-04-11T11:46:09.388Z,30.70
2018-04-11T11:47:09.409Z,32.30
2018-04-11T11:48:09.430Z,33.70
2018-04-11T11:49:09.453Z,32.30
2018-04-11T11:50:09.470Z,33.40
2018-04-11T11:51:09.493Z,40.70
2018-04-11T11:52:09.583Z,36.40
2018-04-11T11:53:09.531Z,37.20
2018-04-11T11:54:09.560Z,36.90
2018-04-11T11:55:09.574Z,38.90
2018-04-11T11:56:09.604Z,39.90
2018-04-11T11:57:09.614Z,37.40
2018-04-11T11:58:09.637Z,35.60
2018-04-11T11:59:09.655Z,35.20
2018-04-11T12:00:09.678Z,33.80
2018-04-11T12:01:09.698Z,36.70
2018-04-11T12:02:09.721Z,34.90
2018-04-11T12:03:09.737Z,33.50
2018-04-11T12:04:09.822Z,37.70
2018-04-11T12:05:09.778Z,33.20
2018-04-11T12:06:09.799Z,35.40
2018-04-11T12:07:09.832Z,37.80
2018-04-11T12:08:09.841Z,38.60
2018-04-11T12:09:09.871Z,35.20
2018-04-11T12:10:09.888Z,35.40
2018-04-11T12:11:09.901Z,39.50
2018-04-11T12:12:09.924Z,36.50
2018-04-11T12:13:09.942Z,42.90
2018-04-11T12:14:09.965Z,38.20
2018-04-11T12:15:09.983Z,38.00
2018-04-11T12:16:10.002Z,41.30
2018-04-11T12:17:10.026Z,40.60
2018-04-11T12:18:10.044Z,39.40
2018-04-11T12:19:10.062Z,35.70
2018-04-11T12:20:10.082Z,35.20
2018-04-11T12:21:10.104Z,37.20
2018-04-11T12:22:10.123Z,40.10
2018-04-11T12:23:10.141Z,40.80
2018-04-11T12:24:10.166Z,40.60
2018-04-11T12:25:10.205Z,39.40
2018-04-11T12:26:10.200Z,38.50
2018-04-11T12:27:10.226Z,40.00
2018-04-11T12:28:10.243Z,41.00
2018-04-11T12:29:10.264Z,37.90
2018-04-11T12:30:10.282Z,38.50
2018-04-11T12:31:10.304Z,38.20
2018-04-11T12:32:10.326Z,38.50
2018-04-11T12:33:10.349Z,38.40
2018-04-11T12:34:10.362Z,37.60
2018-04-11T12:35:10.385Z,38.80
2018-04-11T12:36:10.406Z,37.90
2018-04-11T12:37:10.424Z,20.90
2018-04-11T12:38:10.448Z,18.60
2018-04-11T12:39:10.467Z,18.00
2018-04-11T12:40:10.483Z,20.10
2018-04-11T12:41:10.509Z,15.20
2018-04-11T12:42:10.523Z,15.90
2018-04-11T12:43:10.543Z,17.80
2018-04-11T12:44:10.565Z,15.10
2018-04-11T12:45:10.583Z,16.30
2018-04-11T12:46:10.605Z,17.40
2018-04-11T12:47:10.627Z,17.20
2018-04-11T12:48:10.645Z,13.80
2018-04-11T12:49:10.670Z,15.40
2018-04-11T12:50:10.686Z,17.80
2018-04-11T12:51:10.703Z,14.60
2018-04-11T12:52:10.725Z,16.30
2018-04-11T12:53:10.765Z,14.70